Кострома

СКИДКИ НА СМАРТФОНЫ!

Карта отелей и гостиниц, располагающихся рядом с аэропортом Кострома :

Кострома Костромская область 57° 48' 41.76" N, 41° 1' 40.3212" E
Код аэродрома ИКАО
HF35
Код аэродрома RU
ХФ35
Координаты
N57.81160° E041.02787°
Превышение над уровнем моря
133
Основная полоса
09/27
Курс магнитный
093,4/273,4
Длина основной ВПП
24
Ширина основной ВПП
18
Покрытие основной ВПП
Твёрдое (железобетон)
Освещение ВПП
Нет
Тип: 
Вертодром
Класс аэродрома: 
Принадлежность: 
МО
Статус: 
Недействующий
Сайт: 
E-mail аэродрома: 
Страна: 
Россия
Регион: 
Костромская область
Город: 
Дополнительная информация: 
Оператор: 31-я ОВЭ РВСН (в/ч 65526). Насчитывает пять однотипных ПП для вертолетов с искусственным покрытием размерами 24х18м.

Скидки на навигаторы!

Найти трансфер

С помощью этой формы Вы можете найти трансфер из аэропорта Кострома в город, аэропорт или вокзал:

Погода в аэропортах:

Авиационная погода в Богашево

Регион: 
Погода METAR: 
UNTT 190400Z 24003MPS 0750 0650W R21/0750U FG VV001 11/11 Q1011 R21/290050 NOSIG RMK QBB050 QFE743
Время наблюдения
2022-08-19T04:00:00Z
Температура C
11.0
Точка росы
11.0
Направление ветра
240
Скорость ветра (узлы)
6
Метео видимость
0.47
Облачность
OVX
Нижняя граница облачности (футы)
0
Явления погоды
FG
Условия полета
LIFR
Аэропорт подробнее: 
FG – туман (небо не видно, температура воздуха выше нуля или ноль);

Авиационная погода в Калуге (Грабцево)

Регион: 
Погода METAR: 
UUBC 190400Z 02004MPS 330V060 9000 -SHRA SCT066CB 16/15 Q1021 R31/290050 NOSIG RMK QFE749/0998
Время наблюдения
2022-08-19T04:00:00Z
Температура C
16.0
Точка росы
15.0
Направление ветра
20
Скорость ветра (узлы)
8
Метео видимость
5.59
Облачность
SCT
Нижняя граница облачности (футы)
6600
Явления погоды
-SHRA
Условия полета
VFR
SCT – разбросанная отдельная облачность;
-SHRA - слабый ливневой дождь;

Авиационная погода в Волгограде

Регион: 
Погода METAR: 
URWW 190400Z 01003MPS 9999 -SHRA SCT070CB 21/18 Q1012 R24/010070 TEMPO 1000 SHRA BKN003 BKN040CB
Время наблюдения
2022-08-19T04:00:00Z
Температура C
21.0
Точка росы
18.0
Направление ветра
10
Скорость ветра (узлы)
6
Метео видимость
6.21
Облачность
SCT
Нижняя граница облачности (футы)
7000
Явления погоды
-SHRA
Условия полета
VFR
Аэропорт подробнее: 
SCT – разбросанная отдельная облачность;
-SHRA - слабый ливневой дождь;

Авиационная погода в Усть-Каменогорске

Регион: 
Погода METAR: 
UASK 190255Z 25002MPS 220V330 2100 BR BCFG SCT004 10/07 Q1015 TEMPO 0200 FG BKN002 RMK QBB120 QFE736/0981
Время наблюдения
2022-08-19T02:55:00Z
Температура C
10.0
Точка росы
7.0
Направление ветра
250
Скорость ветра (узлы)
4
Метео видимость
1.3
Облачность
SCT
Нижняя граница облачности (футы)
400
Явления погоды
BR BCFG
Условия полета
IFR
Аэропорт подробнее: 
SCT – разбросанная отдельная облачность;
FG – туман (небо не видно, температура воздуха выше нуля или ноль); BR – дымка (видимость от 1 до 9 км);